sensor_id;sensor_type;location;lat;lon;timestamp;temperature;humidity
30648;DHT22;17683;53.360;9.736;2022-08-01T00:00:25;19.30;99.90
30648;DHT22;17683;53.360;9.736;2022-08-01T00:02:51;19.30;99.90
30648;DHT22;17683;53.360;9.736;2022-08-01T00:05:17;19.30;99.90
30648;DHT22;17683;53.360;9.736;2022-08-01T00:07:43;19.30;99.90
30648;DHT22;17683;53.360;9.736;2022-08-01T00:10:11;19.30;99.90
30648;DHT22;17683;53.360;9.736;2022-08-01T00:12:38;19.30;99.90
30648;DHT22;17683;53.360;9.736;2022-08-01T00:15:05;19.30;99.90
30648;DHT22;17683;53.360;9.736;2022-08-01T00:17:31;19.30;99.90
30648;DHT22;17683;53.360;9.736;2022-08-01T00:19:57;19.30;99.90
30648;DHT22;17683;53.360;9.736;2022-08-01T00:22:22;19.40;99.90
30648;DHT22;17683;53.360;9.736;2022-08-01T00:24:48;19.30;99.90
30648;DHT22;17683;53.360;9.736;2022-08-01T00:27:14;19.30;99.90
30648;DHT22;17683;53.360;9.736;2022-08-01T00:29:40;19.40;99.90
30648;DHT22;17683;53.360;9.736;2022-08-01T00:32:06;19.40;99.90
30648;DHT22;17683;53.360;9.736;2022-08-01T00:34:32;19.40;99.90
30648;DHT22;17683;53.360;9.736;2022-08-01T00:36:58;19.40;99.90
30648;DHT22;17683;53.360;9.736;2022-08-01T00:39:23;19.30;99.90
30648;DHT22;17683;53.360;9.736;2022-08-01T00:41:49;19.30;99.90
30648;DHT22;17683;53.360;9.736;2022-08-01T00:44:15;19.30;99.90
30648;DHT22;17683;53.360;9.736;2022-08-01T00:46:41;19.40;99.90
30648;DHT22;17683;53.360;9.736;2022-08-01T00:49:07;19.30;99.90
30648;DHT22;17683;53.360;9.736;2022-08-01T00:51:33;19.30;99.90
30648;DHT22;17683;53.360;9.736;2022-08-01T00:53:59;19.30;99.90
30648;DHT22;17683;53.360;9.736;2022-08-01T00:56:26;19.30;99.90
30648;DHT22;17683;53.360;9.736;2022-08-01T00:58:54;19.30;99.90
30648;DHT22;17683;53.360;9.736;2022-08-01T01:01:20;19.30;99.90
30648;DHT22;17683;53.360;9.736;2022-08-01T01:03:51;19.40;99.90
30648;DHT22;17683;53.360;9.736;2022-08-01T01:06:37;19.30;99.90
30648;DHT22;17683;53.360;9.736;2022-08-01T01:15:30;19.30;99.90
30648;DHT22;17683;53.360;9.736;2022-08-01T01:17:57;19.30;99.90
30648;DHT22;17683;53.360;9.736;2022-08-01T01:20:51;19.40;99.90
30648;DHT22;17683;53.360;9.736;2022-08-01T01:31:27;19.40;99.90
30648;DHT22;17683;53.360;9.736;2022-08-01T01:33:58;19.30;99.90
30648;DHT22;17683;53.360;9.736;2022-08-01T01:36:26;19.30;99.90
30648;DHT22;17683;53.360;9.736;2022-08-01T01:38:53;19.30;99.90
30648;DHT22;17683;53.360;9.736;2022-08-01T01:41:20;19.30;99.90
30648;DHT22;17683;53.360;9.736;2022-08-01T01:43:46;19.30;99.90
30648;DHT22;17683;53.360;9.736;2022-08-01T01:46:17;19.30;99.90
30648;DHT22;17683;53.360;9.736;2022-08-01T01:48:45;19.20;99.90
30648;DHT22;17683;53.360;9.736;2022-08-01T01:51:13;19.20;99.90
30648;DHT22;17683;53.360;9.736;2022-08-01T01:53:39;19.20;99.90
30648;DHT22;17683;53.360;9.736;2022-08-01T01:56:06;19.10;99.90
30648;DHT22;17683;53.360;9.736;2022-08-01T01:58:35;19.10;99.90
30648;DHT22;17683;53.360;9.736;2022-08-01T02:01:03;19.10;99.90
30648;DHT22;17683;53.360;9.736;2022-08-01T02:03:30;19.00;99.90
30648;DHT22;17683;53.360;9.736;2022-08-01T02:05:57;19.10;99.90
30648;DHT22;17683;53.360;9.736;2022-08-01T02:08:24;19.10;99.90
30648;DHT22;17683;53.360;9.736;2022-08-01T02:10:52;19.00;99.90
30648;DHT22;17683;53.360;9.736;2022-08-01T02:13:38;19.00;99.90
30648;DHT22;17683;53.360;9.736;2022-08-01T02:16:05;19.00;99.90
30648;DHT22;17683;53.360;9.736;2022-08-01T02:18:33;19.00;99.90
30648;DHT22;17683;53.360;9.736;2022-08-01T02:21:00;19.00;99.90
30648;DHT22;17683;53.360;9.736;2022-08-01T02:23:31;19.00;99.90
30648;DHT22;17683;53.360;9.736;2022-08-01T02:25:58;19.00;99.90
30648;DHT22;17683;53.360;9.736;2022-08-01T02:28:30;18.90;99.90
30648;DHT22;17683;53.360;9.736;2022-08-01T02:31:01;18.90;99.90
30648;DHT22;17683;53.360;9.736;2022-08-01T02:33:36;18.90;99.90
30648;DHT22;17683;53.360;9.736;2022-08-01T02:36:03;18.90;99.90
30648;DHT22;17683;53.360;9.736;2022-08-01T02:38:33;18.90;99.90
30648;DHT22;17683;53.360;9.736;2022-08-01T02:41:10;18.90;99.90
30648;DHT22;17683;53.360;9.736;2022-08-01T02:43:48;18.90;99.90
30648;DHT22;17683;53.360;9.736;2022-08-01T02:46:24;18.90;99.90
30648;DHT22;17683;53.360;9.736;2022-08-01T02:48:52;18.90;99.90
30648;DHT22;17683;53.360;9.736;2022-08-01T02:51:19;18.90;99.90
30648;DHT22;17683;53.360;9.736;2022-08-01T02:53:48;18.90;99.90
30648;DHT22;17683;53.360;9.736;2022-08-01T02:56:16;18.90;99.90
30648;DHT22;17683;53.360;9.736;2022-08-01T02:58:43;18.80;99.90
30648;DHT22;17683;53.360;9.736;2022-08-01T03:01:10;18.80;99.90
30648;DHT22;17683;53.360;9.736;2022-08-01T03:03:37;18.80;99.90
30648;DHT22;17683;53.360;9.736;2022-08-01T03:06:04;18.90;99.90
30648;DHT22;17683;53.360;9.736;2022-08-01T03:08:30;18.80;99.90
30648;DHT22;17683;53.360;9.736;2022-08-01T03:10:57;18.80;99.90
30648;DHT22;17683;53.360;9.736;2022-08-01T03:13:25;18.80;99.90
30648;DHT22;17683;53.360;9.736;2022-08-01T03:15:54;18.80;99.90
30648;DHT22;17683;53.360;9.736;2022-08-01T03:18:21;18.80;99.90
30648;DHT22;17683;53.360;9.736;2022-08-01T03:20:50;18.80;99.90
30648;DHT22;17683;53.360;9.736;2022-08-01T03:23:18;18.80;99.90
30648;DHT22;17683;53.360;9.736;2022-08-01T03:25:47;18.80;99.90
30648;DHT22;17683;53.360;9.736;2022-08-01T03:28:16;18.80;99.90
30648;DHT22;17683;53.360;9.736;2022-08-01T03:30:42;18.80;99.90
30648;DHT22;17683;53.360;9.736;2022-08-01T03:33:09;18.80;99.90
30648;DHT22;17683;53.360;9.736;2022-08-01T03:35:45;18.80;99.90
30648;DHT22;17683;53.360;9.736;2022-08-01T03:38:13;18.80;99.90
30648;DHT22;17683;53.360;9.736;2022-08-01T03:40:45;18.80;99.90
30648;DHT22;17683;53.360;9.736;2022-08-01T03:45:57;18.80;99.90
30648;DHT22;17683;53.360;9.736;2022-08-01T03:48:29;18.80;99.90
30648;DHT22;17683;53.360;9.736;2022-08-01T03:50:58;18.70;99.90
30648;DHT22;17683;53.360;9.736;2022-08-01T03:53:28;18.70;99.90
30648;DHT22;17683;53.360;9.736;2022-08-01T03:55:56;18.70;99.90
30648;DHT22;17683;53.360;9.736;2022-08-01T03:58:24;18.70;99.90
30648;DHT22;17683;53.360;9.736;2022-08-01T04:00:51;18.70;99.90
30648;DHT22;17683;53.360;9.736;2022-08-01T04:03:17;18.70;99.90
30648;DHT22;17683;53.360;9.736;2022-08-01T04:05:43;18.70;99.90
30648;DHT22;17683;53.360;9.736;2022-08-01T04:08:09;18.70;99.90
30648;DHT22;17683;53.360;9.736;2022-08-01T04:10:35;18.70;99.90
30648;DHT22;17683;53.360;9.736;2022-08-01T04:13:01;18.70;99.90
30648;DHT22;17683;53.360;9.736;2022-08-01T04:15:28;18.70;99.90
30648;DHT22;17683;53.360;9.736;2022-08-01T04:17:53;18.70;99.90
30648;DHT22;17683;53.360;9.736;2022-08-01T04:20:20;18.70;99.90
30648;DHT22;17683;53.360;9.736;2022-08-01T04:22:45;18.70;99.90
30648;DHT22;17683;53.360;9.736;2022-08-01T04:25:17;18.70;99.90
30648;DHT22;17683;53.360;9.736;2022-08-01T04:27:47;18.70;99.90
30648;DHT22;17683;53.360;9.736;2022-08-01T04:30:15;18.70;99.90
30648;DHT22;17683;53.360;9.736;2022-08-01T04:32:43;18.70;99.90
30648;DHT22;17683;53.360;9.736;2022-08-01T04:35:12;18.70;99.90
30648;DHT22;17683;53.360;9.736;2022-08-01T04:37:43;18.70;99.90
30648;DHT22;17683;53.360;9.736;2022-08-01T04:40:11;18.70;99.90
30648;DHT22;17683;53.360;9.736;2022-08-01T04:42:37;18.70;99.90
30648;DHT22;17683;53.360;9.736;2022-08-01T04:45:03;18.70;99.90
30648;DHT22;17683;53.360;9.736;2022-08-01T04:47:30;18.70;99.90
30648;DHT22;17683;53.360;9.736;2022-08-01T04:49:56;18.70;99.90
30648;DHT22;17683;53.360;9.736;2022-08-01T04:52:22;18.70;99.90
30648;DHT22;17683;53.360;9.736;2022-08-01T04:54:48;18.70;99.90
30648;DHT22;17683;53.360;9.736;2022-08-01T04:57:14;18.70;99.90
30648;DHT22;17683;53.360;9.736;2022-08-01T04:59:43;18.70;99.90
30648;DHT22;17683;53.360;9.736;2022-08-01T05:02:17;18.70;99.90
30648;DHT22;17683;53.360;9.736;2022-08-01T05:04:45;18.70;99.90
30648;DHT22;17683;53.360;9.736;2022-08-01T05:07:12;18.70;99.90
30648;DHT22;17683;53.360;9.736;2022-08-01T05:09:39;18.70;99.90
30648;DHT22;17683;53.360;9.736;2022-08-01T05:12:08;18.60;99.90
30648;DHT22;17683;53.360;9.736;2022-08-01T05:14:35;18.60;99.90
30648;DHT22;17683;53.360;9.736;2022-08-01T05:17:02;18.60;99.90
30648;DHT22;17683;53.360;9.736;2022-08-01T05:19:33;18.70;99.90
30648;DHT22;17683;53.360;9.736;2022-08-01T05:22:00;18.70;99.90
30648;DHT22;17683;53.360;9.736;2022-08-01T05:24:30;18.70;99.90
30648;DHT22;17683;53.360;9.736;2022-08-01T05:26:57;18.70;99.90
30648;DHT22;17683;53.360;9.736;2022-08-01T05:29:23;18.70;99.90
30648;DHT22;17683;53.360;9.736;2022-08-01T05:31:50;18.70;99.90
30648;DHT22;17683;53.360;9.736;2022-08-01T05:34:16;18.70;99.90
30648;DHT22;17683;53.360;9.736;2022-08-01T05:36:42;18.70;99.90
30648;DHT22;17683;53.360;9.736;2022-08-01T05:39:08;18.70;99.90
30648;DHT22;17683;53.360;9.736;2022-08-01T05:41:33;18.70;99.90
30648;DHT22;17683;53.360;9.736;2022-08-01T05:44:02;18.70;99.90
30648;DHT22;17683;53.360;9.736;2022-08-01T05:46:28;18.70;99.90
30648;DHT22;17683;53.360;9.736;2022-08-01T05:48:59;18.70;99.90
30648;DHT22;17683;53.360;9.736;2022-08-01T05:51:25;18.70;99.90
30648;DHT22;17683;53.360;9.736;2022-08-01T05:53:52;18.80;99.90
30648;DHT22;17683;53.360;9.736;2022-08-01T05:56:18;18.80;99.90
30648;DHT22;17683;53.360;9.736;2022-08-01T05:58:43;18.80;99.90
30648;DHT22;17683;53.360;9.736;2022-08-01T06:01:09;18.80;99.90
30648;DHT22;17683;53.360;9.736;2022-08-01T06:03:35;18.80;99.90
30648;DHT22;17683;53.360;9.736;2022-08-01T06:06:01;18.90;99.90
30648;DHT22;17683;53.360;9.736;2022-08-01T06:08:27;18.80;99.90
30648;DHT22;17683;53.360;9.736;2022-08-01T06:10:53;18.80;99.90
30648;DHT22;17683;53.360;9.736;2022-08-01T06:13:19;18.80;99.90
30648;DHT22;17683;53.360;9.736;2022-08-01T06:15:46;18.80;99.90
30648;DHT22;17683;53.360;9.736;2022-08-01T06:18:12;18.80;99.90
30648;DHT22;17683;53.360;9.736;2022-08-01T06:20:37;18.80;99.90
30648;DHT22;17683;53.360;9.736;2022-08-01T06:23:04;18.80;99.90
30648;DHT22;17683;53.360;9.736;2022-08-01T06:25:30;18.80;99.90
30648;DHT22;17683;53.360;9.736;2022-08-01T06:27:56;18.80;99.90
30648;DHT22;17683;53.360;9.736;2022-08-01T06:30:22;18.80;99.90
30648;DHT22;17683;53.360;9.736;2022-08-01T06:32:47;18.80;99.90
30648;DHT22;17683;53.360;9.736;2022-08-01T06:35:14;18.80;99.90
30648;DHT22;17683;53.360;9.736;2022-08-01T06:37:40;18.80;99.90
30648;DHT22;17683;53.360;9.736;2022-08-01T06:40:08;18.80;99.90
30648;DHT22;17683;53.360;9.736;2022-08-01T06:42:35;18.80;99.90
30648;DHT22;17683;53.360;9.736;2022-08-01T06:45:05;18.80;99.90
30648;DHT22;17683;53.360;9.736;2022-08-01T06:47:32;18.80;99.90
30648;DHT22;17683;53.360;9.736;2022-08-01T06:49:58;18.80;99.90
30648;DHT22;17683;53.360;9.736;2022-08-01T06:52:24;18.80;99.90
30648;DHT22;17683;53.360;9.736;2022-08-01T06:54:49;18.80;99.90
30648;DHT22;17683;53.360;9.736;2022-08-01T06:57:15;18.80;99.90
30648;DHT22;17683;53.360;9.736;2022-08-01T06:59:41;18.70;99.90
30648;DHT22;17683;53.360;9.736;2022-08-01T07:02:07;18.70;99.90
30648;DHT22;17683;53.360;9.736;2022-08-01T07:04:34;18.70;99.90
30648;DHT22;17683;53.360;9.736;2022-08-01T07:06:59;18.70;99.90
30648;DHT22;17683;53.360;9.736;2022-08-01T07:09:26;18.70;99.90
30648;DHT22;17683;53.360;9.736;2022-08-01T07:11:52;18.70;99.90
30648;DHT22;17683;53.360;9.736;2022-08-01T07:14:20;18.70;99.90
30648;DHT22;17683;53.360;9.736;2022-08-01T07:16:46;18.60;99.90
30648;DHT22;17683;53.360;9.736;2022-08-01T07:19:12;18.60;99.90
30648;DHT22;17683;53.360;9.736;2022-08-01T07:21:38;18.60;99.90
30648;DHT22;17683;53.360;9.736;2022-08-01T07:24:05;18.60;99.90
30648;DHT22;17683;53.360;9.736;2022-08-01T07:26:31;18.60;99.90
30648;DHT22;17683;53.360;9.736;2022-08-01T07:28:58;18.70;99.90
30648;DHT22;17683;53.360;9.736;2022-08-01T07:31:23;18.70;99.90
30648;DHT22;17683;53.360;9.736;2022-08-01T07:33:50;18.80;99.90
30648;DHT22;17683;53.360;9.736;2022-08-01T07:36:17;18.80;99.90
30648;DHT22;17683;53.360;9.736;2022-08-01T07:38:43;18.80;99.90
30648;DHT22;17683;53.360;9.736;2022-08-01T07:41:09;18.80;99.90
30648;DHT22;17683;53.360;9.736;2022-08-01T07:43:35;18.80;99.90
30648;DHT22;17683;53.360;9.736;2022-08-01T07:46:05;18.80;99.90
30648;DHT22;17683;53.360;9.736;2022-08-01T07:48:31;18.80;99.90
30648;DHT22;17683;53.360;9.736;2022-08-01T07:50:57;18.80;99.90
30648;DHT22;17683;53.360;9.736;2022-08-01T07:53:23;18.80;99.90
30648;DHT22;17683;53.360;9.736;2022-08-01T07:55:49;18.70;99.90
30648;DHT22;17683;53.360;9.736;2022-08-01T07:58:15;18.70;99.90
30648;DHT22;17683;53.360;9.736;2022-08-01T08:00:42;18.80;99.90
30648;DHT22;17683;53.360;9.736;2022-08-01T08:03:08;18.80;99.90
30648;DHT22;17683;53.360;9.736;2022-08-01T08:05:33;18.80;99.90
30648;DHT22;17683;53.360;9.736;2022-08-01T08:08:04;18.90;99.90
30648;DHT22;17683;53.360;9.736;2022-08-01T08:10:31;18.90;99.90
30648;DHT22;17683;53.360;9.736;2022-08-01T08:12:56;19.00;99.90
30648;DHT22;17683;53.360;9.736;2022-08-01T08:15:22;19.00;99.90
30648;DHT22;17683;53.360;9.736;2022-08-01T08:17:48;19.00;99.90
30648;DHT22;17683;53.360;9.736;2022-08-01T08:20:14;19.10;99.90
30648;DHT22;17683;53.360;9.736;2022-08-01T08:22:40;19.00;99.90
30648;DHT22;17683;53.360;9.736;2022-08-01T08:25:07;19.00;99.90
30648;DHT22;17683;53.360;9.736;2022-08-01T08:27:33;19.00;99.90
30648;DHT22;17683;53.360;9.736;2022-08-01T08:29:59;19.00;99.90
30648;DHT22;17683;53.360;9.736;2022-08-01T08:32:24;19.10;99.90
30648;DHT22;17683;53.360;9.736;2022-08-01T08:34:50;19.10;99.90
30648;DHT22;17683;53.360;9.736;2022-08-01T08:37:16;19.20;99.90
30648;DHT22;17683;53.360;9.736;2022-08-01T08:39:43;19.30;99.90
30648;DHT22;17683;53.360;9.736;2022-08-01T08:42:10;19.30;99.90
30648;DHT22;17683;53.360;9.736;2022-08-01T08:44:37;19.40;99.90
30648;DHT22;17683;53.360;9.736;2022-08-01T08:47:05;19.40;99.90
30648;DHT22;17683;53.360;9.736;2022-08-01T08:49:33;19.40;99.90
30648;DHT22;17683;53.360;9.736;2022-08-01T08:52:00;19.40;99.90
30648;DHT22;17683;53.360;9.736;2022-08-01T08:54:27;19.40;99.90
30648;DHT22;17683;53.360;9.736;2022-08-01T08:56:54;19.50;99.90
30648;DHT22;17683;53.360;9.736;2022-08-01T08:59:21;19.60;99.90
30648;DHT22;17683;53.360;9.736;2022-08-01T09:01:47;19.50;99.90
30648;DHT22;17683;53.360;9.736;2022-08-01T09:04:13;19.60;99.90
30648;DHT22;17683;53.360;9.736;2022-08-01T09:06:39;19.70;99.90
30648;DHT22;17683;53.360;9.736;2022-08-01T09:09:06;20.00;99.90
30648;DHT22;17683;53.360;9.736;2022-08-01T09:11:32;20.10;99.90
30648;DHT22;17683;53.360;9.736;2022-08-01T09:16:33;20.30;99.90
30648;DHT22;17683;53.360;9.736;2022-08-01T09:19:15;20.30;99.90
30648;DHT22;17683;53.360;9.736;2022-08-01T09:21:59;20.30;99.90
30648;DHT22;17683;53.360;9.736;2022-08-01T09:24:29;20.40;99.90
30648;DHT22;17683;53.360;9.736;2022-08-01T09:26:56;20.40;99.90
30648;DHT22;17683;53.360;9.736;2022-08-01T09:29:27;20.60;99.90
30648;DHT22;17683;53.360;9.736;2022-08-01T09:31:53;20.70;99.90
30648;DHT22;17683;53.360;9.736;2022-08-01T09:34:29;20.90;99.90
30648;DHT22;17683;53.360;9.736;2022-08-01T09:36:58;21.10;99.90
30648;DHT22;17683;53.360;9.736;2022-08-01T09:39:35;21.10;99.90
30648;DHT22;17683;53.360;9.736;2022-08-01T09:44:44;21.40;99.90
30648;DHT22;17683;53.360;9.736;2022-08-01T09:47:12;21.50;99.90
30648;DHT22;17683;53.360;9.736;2022-08-01T09:49:39;21.50;99.90
30648;DHT22;17683;53.360;9.736;2022-08-01T09:54:41;21.60;99.90
30648;DHT22;17683;53.360;9.736;2022-08-01T09:57:09;21.70;99.90
30648;DHT22;17683;53.360;9.736;2022-08-01T09:59:39;21.90;99.90
30648;DHT22;17683;53.360;9.736;2022-08-01T10:02:09;22.10;99.90
30648;DHT22;17683;53.360;9.736;2022-08-01T10:04:36;22.30;99.90
30648;DHT22;17683;53.360;9.736;2022-08-01T10:07:07;22.30;99.90
30648;DHT22;17683;53.360;9.736;2022-08-01T10:09:35;22.30;99.90
30648;DHT22;17683;53.360;9.736;2022-08-01T10:12:01;22.30;99.90
30648;DHT22;17683;53.360;9.736;2022-08-01T10:14:29;22.40;99.90
30648;DHT22;17683;53.360;9.736;2022-08-01T10:16:57;22.60;99.90
30648;DHT22;17683;53.360;9.736;2022-08-01T10:19:25;22.80;99.90
30648;DHT22;17683;53.360;9.736;2022-08-01T10:21:52;22.90;99.90
30648;DHT22;17683;53.360;9.736;2022-08-01T10:24:23;22.90;99.90
30648;DHT22;17683;53.360;9.736;2022-08-01T10:26:52;22.80;99.70
30648;DHT22;17683;53.360;9.736;2022-08-01T10:29:21;22.80;99.90
30648;DHT22;17683;53.360;9.736;2022-08-01T10:31:48;22.80;98.90
30648;DHT22;17683;53.360;9.736;2022-08-01T10:34:16;22.70;99.20
30648;DHT22;17683;53.360;9.736;2022-08-01T10:36:45;22.80;99.90
30648;DHT22;17683;53.360;9.736;2022-08-01T10:39:11;22.80;99.90
30648;DHT22;17683;53.360;9.736;2022-08-01T10:41:39;23.00;97.40
30648;DHT22;17683;53.360;9.736;2022-08-01T10:44:07;22.90;98.30
30648;DHT22;17683;53.360;9.736;2022-08-01T10:46:35;23.00;98.10
30648;DHT22;17683;53.360;9.736;2022-08-01T10:49:14;23.10;97.70
30648;DHT22;17683;53.360;9.736;2022-08-01T10:51:41;23.20;98.40
30648;DHT22;17683;53.360;9.736;2022-08-01T10:54:10;23.30;99.60
30648;DHT22;17683;53.360;9.736;2022-08-01T10:56:48;23.40;99.50
30648;DHT22;17683;53.360;9.736;2022-08-01T10:59:22;23.60;98.20
30648;DHT22;17683;53.360;9.736;2022-08-01T11:02:01;23.60;98.70
30648;DHT22;17683;53.360;9.736;2022-08-01T11:07:16;23.90;98.90
30648;DHT22;17683;53.360;9.736;2022-08-01T11:09:48;23.80;96.60
30648;DHT22;17683;53.360;9.736;2022-08-01T11:12:18;23.90;98.00
30648;DHT22;17683;53.360;9.736;2022-08-01T11:17:39;24.10;97.20
30648;DHT22;17683;53.360;9.736;2022-08-01T11:20:10;24.10;96.80
30648;DHT22;17683;53.360;9.736;2022-08-01T11:28:17;24.10;95.70
30648;DHT22;17683;53.360;9.736;2022-08-01T11:30:47;24.10;96.30
30648;DHT22;17683;53.360;9.736;2022-08-01T11:33:15;24.20;96.10
30648;DHT22;17683;53.360;9.736;2022-08-01T11:38:42;24.20;94.80
30648;DHT22;17683;53.360;9.736;2022-08-01T11:49:49;24.30;95.90
30648;DHT22;17683;53.360;9.736;2022-08-01T11:52:30;24.50;96.20
30648;DHT22;17683;53.360;9.736;2022-08-01T11:57:29;24.60;94.70
30648;DHT22;17683;53.360;9.736;2022-08-01T11:59:58;24.70;95.50
30648;DHT22;17683;53.360;9.736;2022-08-01T12:02:28;24.80;95.70
30648;DHT22;17683;53.360;9.736;2022-08-01T12:07:35;24.90;93.70
30648;DHT22;17683;53.360;9.736;2022-08-01T12:10:11;24.80;93.60
30648;DHT22;17683;53.360;9.736;2022-08-01T12:12:47;24.80;94.70
30648;DHT22;17683;53.360;9.736;2022-08-01T12:15:14;24.90;94.80
30648;DHT22;17683;53.360;9.736;2022-08-01T12:17:43;24.80;94.10
30648;DHT22;17683;53.360;9.736;2022-08-01T12:20:20;24.80;93.50
30648;DHT22;17683;53.360;9.736;2022-08-01T12:22:46;24.60;93.00
30648;DHT22;17683;53.360;9.736;2022-08-01T12:25:15;24.40;93.70
30648;DHT22;17683;53.360;9.736;2022-08-01T12:27:43;24.40;93.90
30648;DHT22;17683;53.360;9.736;2022-08-01T12:30:15;24.30;92.60
30648;DHT22;17683;53.360;9.736;2022-08-01T12:32:42;24.40;94.10
30648;DHT22;17683;53.360;9.736;2022-08-01T12:35:11;24.40;93.70
30648;DHT22;17683;53.360;9.736;2022-08-01T12:37:38;24.40;93.00
30648;DHT22;17683;53.360;9.736;2022-08-01T12:40:25;24.30;93.50
30648;DHT22;17683;53.360;9.736;2022-08-01T12:42:55;24.30;93.70
30648;DHT22;17683;53.360;9.736;2022-08-01T12:45:24;24.30;93.40
30648;DHT22;17683;53.360;9.736;2022-08-01T12:47:52;24.20;94.00
30648;DHT22;17683;53.360;9.736;2022-08-01T12:50:23;24.10;93.80
30648;DHT22;17683;53.360;9.736;2022-08-01T12:52:50;24.20;94.30
30648;DHT22;17683;53.360;9.736;2022-08-01T12:55:24;24.10;93.70
30648;DHT22;17683;53.360;9.736;2022-08-01T12:58:04;24.00;93.80
30648;DHT22;17683;53.360;9.736;2022-08-01T13:00:30;24.00;94.40
30648;DHT22;17683;53.360;9.736;2022-08-01T13:03:05;24.00;94.10
30648;DHT22;17683;53.360;9.736;2022-08-01T13:05:48;24.00;94.10
30648;DHT22;17683;53.360;9.736;2022-08-01T13:10:41;24.30;93.90
30648;DHT22;17683;53.360;9.736;2022-08-01T13:13:11;24.20;93.20
30648;DHT22;17683;53.360;9.736;2022-08-01T13:15:39;24.10;93.10
30648;DHT22;17683;53.360;9.736;2022-08-01T13:18:26;23.90;93.60
30648;DHT22;17683;53.360;9.736;2022-08-01T13:23:37;23.70;94.10
30648;DHT22;17683;53.360;9.736;2022-08-01T13:26:04;23.70;92.80
30648;DHT22;17683;53.360;9.736;2022-08-01T13:28:29;23.70;94.10
30648;DHT22;17683;53.360;9.736;2022-08-01T13:31:07;23.60;93.50
30648;DHT22;17683;53.360;9.736;2022-08-01T13:33:45;23.60;93.00
30648;DHT22;17683;53.360;9.736;2022-08-01T13:36:11;23.40;92.90
30648;DHT22;17683;53.360;9.736;2022-08-01T13:38:39;23.40;94.20
30648;DHT22;17683;53.360;9.736;2022-08-01T13:41:23;23.30;93.30
30648;DHT22;17683;53.360;9.736;2022-08-01T13:43:49;23.30;93.40
30648;DHT22;17683;53.360;9.736;2022-08-01T13:46:15;23.30;93.70
30648;DHT22;17683;53.360;9.736;2022-08-01T13:48:42;23.20;93.50
30648;DHT22;17683;53.360;9.736;2022-08-01T13:51:08;23.20;93.50
30648;DHT22;17683;53.360;9.736;2022-08-01T13:53:34;23.20;93.80
30648;DHT22;17683;53.360;9.736;2022-08-01T13:56:00;23.20;93.50
30648;DHT22;17683;53.360;9.736;2022-08-01T13:58:26;23.10;93.30
30648;DHT22;17683;53.360;9.736;2022-08-01T14:00:54;23.20;93.60
30648;DHT22;17683;53.360;9.736;2022-08-01T14:03:19;23.10;94.40
30648;DHT22;17683;53.360;9.736;2022-08-01T14:05:46;23.10;93.80
30648;DHT22;17683;53.360;9.736;2022-08-01T14:08:12;23.10;93.40
30648;DHT22;17683;53.360;9.736;2022-08-01T14:10:37;23.00;93.50
30648;DHT22;17683;53.360;9.736;2022-08-01T14:13:03;22.90;93.30
30648;DHT22;17683;53.360;9.736;2022-08-01T14:15:31;22.80;93.40
30648;DHT22;17683;53.360;9.736;2022-08-01T14:17:57;22.80;93.80
30648;DHT22;17683;53.360;9.736;2022-08-01T14:20:23;22.80;93.80
30648;DHT22;17683;53.360;9.736;2022-08-01T14:22:49;22.90;94.00
30648;DHT22;17683;53.360;9.736;2022-08-01T14:25:15;22.90;94.30
30648;DHT22;17683;53.360;9.736;2022-08-01T14:27:40;22.90;93.10
30648;DHT22;17683;53.360;9.736;2022-08-01T14:30:08;22.90;93.30
30648;DHT22;17683;53.360;9.736;2022-08-01T14:32:34;22.90;93.70
30648;DHT22;17683;53.360;9.736;2022-08-01T14:35:01;22.90;92.30
30648;DHT22;17683;53.360;9.736;2022-08-01T14:37:27;22.70;93.00
30648;DHT22;17683;53.360;9.736;2022-08-01T14:39:57;22.50;93.00
30648;DHT22;17683;53.360;9.736;2022-08-01T14:42:23;22.40;93.20
30648;DHT22;17683;53.360;9.736;2022-08-01T14:44:49;22.40;93.40
30648;DHT22;17683;53.360;9.736;2022-08-01T14:47:14;22.40;93.80
30648;DHT22;17683;53.360;9.736;2022-08-01T14:49:40;22.30;93.60
30648;DHT22;17683;53.360;9.736;2022-08-01T14:52:06;22.40;94.20
30648;DHT22;17683;53.360;9.736;2022-08-01T14:54:32;22.40;93.80
30648;DHT22;17683;53.360;9.736;2022-08-01T14:56:58;22.50;93.80
30648;DHT22;17683;53.360;9.736;2022-08-01T14:59:24;22.40;93.90
30648;DHT22;17683;53.360;9.736;2022-08-01T15:01:49;22.40;93.30
30648;DHT22;17683;53.360;9.736;2022-08-01T15:04:15;22.30;93.90
30648;DHT22;17683;53.360;9.736;2022-08-01T15:06:43;22.40;92.80
30648;DHT22;17683;53.360;9.736;2022-08-01T15:09:09;22.30;93.60
30648;DHT22;17683;53.360;9.736;2022-08-01T15:11:34;22.30;93.40
30648;DHT22;17683;53.360;9.736;2022-08-01T15:14:00;22.30;93.10
30648;DHT22;17683;53.360;9.736;2022-08-01T15:16:45;22.30;93.80
30648;DHT22;17683;53.360;9.736;2022-08-01T15:19:10;22.30;93.60
30648;DHT22;17683;53.360;9.736;2022-08-01T15:21:36;22.30;93.20
30648;DHT22;17683;53.360;9.736;2022-08-01T15:24:02;22.30;93.60
30648;DHT22;17683;53.360;9.736;2022-08-01T15:26:27;22.20;93.10
30648;DHT22;17683;53.360;9.736;2022-08-01T15:28:55;22.10;93.60
30648;DHT22;17683;53.360;9.736;2022-08-01T15:31:20;22.10;93.80
30648;DHT22;17683;53.360;9.736;2022-08-01T15:33:46;22.00;92.70
30648;DHT22;17683;53.360;9.736;2022-08-01T15:36:12;21.90;93.20
30648;DHT22;17683;53.360;9.736;2022-08-01T15:38:38;21.80;94.20
30648;DHT22;17683;53.360;9.736;2022-08-01T15:41:03;21.80;93.50
30648;DHT22;17683;53.360;9.736;2022-08-01T15:43:29;21.60;93.40
30648;DHT22;17683;53.360;9.736;2022-08-01T15:46:04;21.50;93.20
30648;DHT22;17683;53.360;9.736;2022-08-01T15:48:29;21.40;94.00
30648;DHT22;17683;53.360;9.736;2022-08-01T15:50:55;21.40;94.30
30648;DHT22;17683;53.360;9.736;2022-08-01T15:53:21;21.40;93.90
30648;DHT22;17683;53.360;9.736;2022-08-01T15:55:47;21.40;93.90
30648;DHT22;17683;53.360;9.736;2022-08-01T15:58:12;21.40;94.00
30648;DHT22;17683;53.360;9.736;2022-08-01T16:00:38;21.50;94.10
30648;DHT22;17683;53.360;9.736;2022-08-01T16:03:04;21.50;93.20
30648;DHT22;17683;53.360;9.736;2022-08-01T16:05:30;21.50;93.60
30648;DHT22;17683;53.360;9.736;2022-08-01T16:07:55;21.50;93.10
30648;DHT22;17683;53.360;9.736;2022-08-01T16:10:21;21.40;93.50
30648;DHT22;17683;53.360;9.736;2022-08-01T16:12:47;21.40;93.40
30648;DHT22;17683;53.360;9.736;2022-08-01T16:15:13;21.40;93.70
30648;DHT22;17683;53.360;9.736;2022-08-01T16:17:38;21.40;93.40
30648;DHT22;17683;53.360;9.736;2022-08-01T16:20:05;21.40;93.50
30648;DHT22;17683;53.360;9.736;2022-08-01T16:22:32;21.40;92.60
30648;DHT22;17683;53.360;9.736;2022-08-01T16:24:59;21.30;92.50
30648;DHT22;17683;53.360;9.736;2022-08-01T16:27:24;21.20;93.20
30648;DHT22;17683;53.360;9.736;2022-08-01T16:29:50;21.10;93.00
30648;DHT22;17683;53.360;9.736;2022-08-01T16:32:16;21.10;93.50